Time;durP1;ratioP1;P1;durP2;ratioP2;P2;SDS_P1;SDS_P2;PMS_P1;PMS_P2;Temp;Humidity;BMP_temperature;BMP_pressure;BME280_temperature;BME280_humidity;BME280_pressure;Samples;Min_cycle;Max_cycle;Signal;HPM_P1;HPM_P2
2021/12/04 00:02:17;;;;;;;3.58;1.60;;;;;;;3.64;61.07;99517.25;4992619;28;20459;-77
2021/12/04 00:04:46;;;;;;;4.00;1.80;;;;;;;3.64;60.65;99513.75;4992460;28;20057;-77
2021/12/04 00:07:12;;;;;;;3.78;1.35;;;;;;;3.65;60.31;99518.13;4992311;28;20566;-77
2021/12/04 00:09:38;;;;;;;7.68;2.22;;;;;;;3.65;60.24;99521.59;4992339;28;20042;-77
2021/12/04 00:12:05;;;;;;;3.38;1.50;;;;;;;3.73;60.60;99516.44;4992416;28;20042;-77
2021/12/04 00:14:32;;;;;;;3.67;1.70;;;;;;;3.80;60.36;99509.47;4992041;28;20049;-76
2021/12/04 00:16:58;;;;;;;5.13;1.83;;;;;;;3.79;59.89;99512.97;4988575;28;20038;-76
2021/12/04 00:19:24;;;;;;;7.00;1.70;;;;;;;3.75;59.55;99512.09;4992333;28;20038;-76
2021/12/04 00:21:51;;;;;;;4.65;1.98;;;;;;;3.73;59.66;99514.69;4992165;28;20498;-76
2021/12/04 00:24:16;;;;;;;4.22;2.00;;;;;;;3.78;59.71;99514.72;4992021;28;20501;-77
2021/12/04 00:26:42;;;;;;;4.00;1.83;;;;;;;3.80;59.39;99519.91;4991976;28;20050;-77
2021/12/04 00:29:07;;;;;;;5.57;1.80;;;;;;;3.79;58.97;99503.41;5007164;28;20034;-77
2021/12/04 00:31:33;;;;;;;5.68;1.50;;;;;;;3.77;59.22;99510.34;4992131;28;20069;-77
2021/12/04 00:33:59;;;;;;;5.28;2.40;;;;;;;3.73;59.36;99509.47;4991626;28;20066;-77
2021/12/04 00:49:45;;;;;;;7.93;1.95;;;;;;;3.86;58.27;99479.06;4990065;28;20038;-74
2021/12/04 00:52:11;;;;;;;3.90;2.08;;;;;;;3.81;58.50;99480.78;4991863;28;20036;-74
2021/12/04 00:54:37;;;;;;;5.30;1.90;;;;;;;3.83;58.50;99481.69;4991432;28;20492;-74
2021/12/04 00:57:03;;;;;;;4.32;1.80;;;;;;;3.87;58.67;99483.41;4991790;28;20038;-74
2021/12/04 00:59:29;;;;;;;3.90;2.10;;;;;;;3.90;58.36;99480.84;4991712;28;20117;-74
2021/12/04 01:01:55;;;;;;;3.95;2.10;;;;;;;3.88;58.40;99476.47;4991833;28;20126;-74
2021/12/04 01:04:21;;;;;;;6.45;2.08;;;;;;;3.91;58.30;99472.13;4991363;28;20042;-75
2021/12/04 01:06:47;;;;;;;3.90;1.70;;;;;;;3.91;58.63;99474.75;4991625;28;20030;-74
2021/12/04 01:09:14;;;;;;;5.03;1.42;;;;;;;3.90;58.69;99479.94;4992131;28;20084;-74
2021/12/04 01:11:42;;;;;;;2.88;1.67;;;;;;;3.92;58.98;99473.88;4991620;28;20042;-74
2021/12/04 01:14:09;;;;;;;6.13;2.17;;;;;;;3.84;59.02;99469.50;4991429;28;20133;-74
2021/12/04 01:16:34;;;;;;;4.75;1.77;;;;;;;3.80;58.40;99463.41;4991380;28;20046;-74
2021/12/04 01:19:00;;;;;;;5.25;1.83;;;;;;;3.83;58.72;99471.25;4990011;28;20042;-74
2021/12/04 01:21:26;;;;;;;3.60;1.70;;;;;;;3.78;59.19;99472.97;4985640;28;20039;-74
2021/12/04 01:23:51;;;;;;;5.25;2.03;;;;;;;3.82;59.91;99472.09;4989557;28;20081;-74
2021/12/04 01:26:17;;;;;;;5.47;2.45;;;;;;;3.77;59.73;99472.94;4990347;28;20440;-74
2021/12/04 01:28:42;;;;;;;3.67;1.55;;;;;;;3.73;59.54;99470.31;4990788;28;20447;-74
2021/12/04 01:31:08;;;;;;;5.07;1.88;;;;;;;3.79;59.33;99463.38;4990924;28;20030;-77
2021/12/04 01:33:33;;;;;;;3.97;1.55;;;;;;;3.80;60.07;99468.63;4990673;28;20034;-77
2021/12/04 01:35:59;;;;;;;3.72;1.95;;;;;;;3.78;60.27;99465.13;4990487;28;20100;-77
2021/12/04 01:38:24;;;;;;;8.63;2.05;;;;;;;3.73;59.89;99466.84;4990771;28;20030;-76
2021/12/04 01:40:49;;;;;;;3.50;1.45;;;;;;;3.69;60.36;99455.53;4989427;28;20041;-77
2021/12/04 01:43:15;;;;;;;4.68;1.80;;;;;;;3.71;60.35;99460.75;4990611;28;20401;-77
2021/12/04 01:45:40;;;;;;;6.32;1.95;;;;;;;3.77;60.11;99462.50;4990516;28;20045;-77
2021/12/04 01:48:06;;;;;;;4.95;1.80;;;;;;;3.73;60.03;99464.22;4990382;28;20029;-77
2021/12/04 01:50:33;;;;;;;5.70;1.75;;;;;;;3.70;59.87;99457.25;4990888;28;20034;-77
2021/12/04 01:52:59;;;;;;;4.10;2.05;;;;;;;3.73;59.98;99459.00;4990725;28;20046;-76
2021/12/04 01:55:31;;;;;;;4.30;1.67;;;;;;;3.78;59.84;99454.69;5005056;28;20237;-76
2021/12/04 01:58:00;;;;;;;7.38;2.05;;;;;;;3.73;60.28;99452.06;4992712;28;20043;-76
2021/12/04 02:00:26;;;;;;;3.58;1.80;;;;;;;3.72;59.68;99452.03;4990561;28;20030;-76
2021/12/04 02:02:51;;;;;;;4.95;2.00;;;;;;;3.73;59.55;99451.19;4990640;28;20511;-76
2021/12/04 02:05:16;;;;;;;4.47;1.67;;;;;;;3.79;60.22;99456.41;4990633;28;20038;-76
2021/12/04 02:07:42;;;;;;;4.93;1.80;;;;;;;3.80;59.91;99454.69;4991244;28;20400;-77
2021/12/04 02:10:08;;;;;;;4.07;1.90;;;;;;;3.85;59.69;99447.72;4988330;28;20078;-77
2021/12/04 02:12:33;;;;;;;5.97;2.35;;;;;;;3.87;59.31;99449.47;4992013;28;20026;-77
2021/12/04 02:14:59;;;;;;;6.55;2.45;;;;;;;3.87;59.70;99446.88;4992230;28;20038;-77
2021/12/04 02:17:24;;;;;;;4.47;1.88;;;;;;;3.79;59.35;99445.97;4992594;28;20026;-76
2021/12/04 02:19:50;;;;;;;8.00;2.47;;;;;;;3.83;59.18;99444.28;4992201;28;20050;-76
2021/12/04 02:22:16;;;;;;;4.50;1.92;;;;;;;3.84;59.34;99448.63;4993633;28;20022;-76
2021/12/04 02:24:41;;;;;;;6.07;2.15;;;;;;;3.90;59.51;99438.19;4989600;28;20096;-76
2021/12/04 02:27:07;;;;;;;5.55;2.22;;;;;;;3.90;59.66;99440.78;4991048;28;20039;-76
2021/12/04 02:29:32;;;;;;;4.95;2.10;;;;;;;3.80;59.08;99439.00;4988660;28;20031;-76
2021/12/04 02:32:01;;;;;;;4.60;1.88;;;;;;;3.88;59.57;99438.19;4991927;28;20035;-76
2021/12/04 02:34:29;;;;;;;5.47;2.20;;;;;;;3.86;59.54;99432.09;4989991;28;20041;-77
2021/12/04 02:36:56;;;;;;;4.85;2.00;;;;;;;3.93;59.46;99431.25;4991492;28;20038;-76
2021/12/04 02:39:29;;;;;;;5.97;2.13;;;;;;;3.92;59.60;99434.72;4991832;28;20035;-77
2021/12/04 02:41:55;;;;;;;5.88;2.35;;;;;;;3.94;59.69;99426.91;4991940;28;20041;-76
2021/12/04 02:44:21;;;;;;;5.93;2.17;;;;;;;3.94;60.02;99426.91;4990331;28;20041;-77
2021/12/04 02:46:47;;;;;;;4.88;2.03;;;;;;;3.94;59.76;99419.94;4993136;28;20393;-76
2021/12/04 02:49:14;;;;;;;6.53;2.00;;;;;;;3.89;59.50;99415.56;5005598;28;20034;-75
2021/12/04 02:51:40;;;;;;;5.75;2.38;;;;;;;3.91;59.55;99409.50;4985983;28;20125;-76
2021/12/04 02:54:07;;;;;;;4.40;2.00;;;;;;;3.91;60.25;99406.88;4988550;28;20564;-76
2021/12/04 02:56:32;;;;;;;5.43;1.92;;;;;;;3.95;59.91;99406.00;4988689;28;20026;-76
2021/12/04 02:59:01;;;;;;;3.75;1.67;;;;;;;3.98;60.15;99399.91;4990912;28;20512;-76
2021/12/04 03:01:27;;;;;;;3.75;1.83;;;;;;;4.00;59.56;99398.19;4989617;28;20042;-76
2021/12/04 03:04:08;;;;;;;4.13;1.98;;;;;;;3.97;59.56;99392.97;4991384;28;20034;-76
2021/12/04 03:06:41;;;;;;;4.63;1.98;;;;;;;4.07;60.30;99391.25;4990883;28;20038;-76
2021/12/04 03:09:07;;;;;;;5.72;2.28;;;;;;;4.06;59.98;99382.56;4991689;28;20528;-77
2021/12/04 03:11:33;;;;;;;3.80;1.58;;;;;;;3.92;59.82;99382.50;4992448;28;20042;-76
2021/12/04 03:13:58;;;;;;;5.32;1.98;;;;;;;3.97;60.38;99376.44;4986233;28;20066;-76
2021/12/04 03:16:24;;;;;;;4.35;1.90;;;;;;;3.99;60.51;99374.72;4988917;28;20038;-76
2021/12/04 03:18:50;;;;;;;3.88;1.83;;;;;;;3.93;60.29;99368.59;4987041;28;20042;-76
2021/12/04 03:21:15;;;;;;;4.85;1.70;;;;;;;4.01;60.01;99370.34;4986794;28;20125;-77
2021/12/04 03:23:52;;;;;;;4.30;1.73;;;;;;;3.87;61.18;99362.47;4990448;28;20157;-76
2021/12/04 03:26:17;;;;;;;7.32;1.85;;;;;;;3.90;60.96;99359.88;4990654;28;20042;-76
2021/12/04 03:28:43;;;;;;;4.70;1.95;;;;;;;3.96;60.86;99357.28;4986675;28;20093;-76
2021/12/04 03:31:24;;;;;;;4.90;1.75;;;;;;;3.99;60.50;99353.81;4992120;28;20042;-76
2021/12/04 03:42:01;;;;;;;3.80;1.77;;;;;;;3.96;61.32;99328.59;4988084;28;20034;-76
2021/12/04 03:44:27;;;;;;;4.90;2.13;;;;;;;3.93;61.42;99334.66;4988340;28;20046;-77
2021/12/04 03:46:52;;;;;;;4.18;2.13;;;;;;;3.93;61.07;99324.22;4990274;28;20034;-77
2021/12/04 03:49:18;;;;;;;3.22;1.63;;;;;;;3.97;61.33;99316.38;4987879;28;20412;-77
2021/12/04 03:51:43;;;;;;;6.75;2.20;;;;;;;3.93;61.11;99323.38;4990237;28;20038;-76
2021/12/04 03:54:08;;;;;;;4.90;1.92;;;;;;;3.92;61.67;99321.59;4992564;28;20063;-76
2021/12/04 03:56:36;;;;;;;5.55;2.05;;;;;;;3.94;61.73;99315.50;4992337;28;20050;-77
2021/12/04 03:59:01;;;;;;;4.18;1.85;;;;;;;3.97;61.54;99313.78;4991246;28;20520;-77
2021/12/04 04:01:28;;;;;;;5.07;1.92;;;;;;;3.92;61.34;99317.25;4989328;28;20116;-77
2021/12/04 04:03:53;;;;;;;4.72;1.75;;;;;;;3.94;61.84;99318.13;4993178;28;20407;-76
2021/12/04 04:06:19;;;;;;;4.97;1.90;;;;;;;3.95;61.62;99312.03;5000920;28;20041;-77
2021/12/04 04:08:44;;;;;;;5.05;1.95;;;;;;;3.89;61.87;99319.84;4995809;28;20030;-77
2021/12/04 04:11:09;;;;;;;5.30;2.42;;;;;;;3.86;61.88;99309.41;4992184;28;20046;-77
2021/12/04 04:13:40;;;;;;;4.25;1.98;;;;;;;3.74;62.91;99306.78;4992251;28;20030;-77
2021/12/04 04:16:05;;;;;;;3.83;2.35;;;;;;;3.67;62.75;99310.25;4991884;28;20068;-77
2021/12/04 04:18:32;;;;;;;4.88;2.38;;;;;;;3.74;62.79;99302.41;4992366;28;20037;-77
2021/12/04 04:20:58;;;;;;;3.65;2.10;;;;;;;3.87;63.03;99305.06;4991745;28;20038;-77
2021/12/04 04:23:23;;;;;;;4.53;2.17;;;;;;;3.84;63.19;99300.72;4992276;28;20468;-77
2021/12/04 04:25:49;;;;;;;4.95;1.98;;;;;;;3.84;62.97;99302.44;4987703;28;20029;-77
2021/12/04 04:28:14;;;;;;;3.72;2.00;;;;;;;3.80;63.69;99298.97;4991750;28;20555;-77
2021/12/04 04:30:40;;;;;;;5.72;2.10;;;;;;;3.71;64.47;99293.72;4990721;28;20038;-77
2021/12/04 04:33:06;;;;;;;5.22;2.05;;;;;;;3.81;64.69;99297.22;4990781;28;20034;-76
2021/12/04 04:35:33;;;;;;;4.75;2.33;;;;;;;3.80;64.87;99290.25;4991606;28;20511;-77
2021/12/04 04:57:33;;;;;;;4.85;2.60;;;;;;;3.68;66.78;99286.75;5020140;28;20069;-74
2021/12/04 05:00:29;;;;;;;6.88;2.60;;;;;;;3.70;66.88;99290.25;5020447;28;20176;-73
2021/12/04 05:11:12;;;;;;;7.20;3.40;;;;;;;3.61;68.18;99284.16;5019647;28;20033;-74
2021/12/04 05:13:39;;;;;;;8.63;3.28;;;;;;;3.54;68.53;99288.50;5020837;28;20492;-74
2021/12/04 05:16:17;;;;;;;5.05;2.90;;;;;;;3.61;68.78;99273.72;5022013;28;20454;-74
2021/12/04 05:18:55;;;;;;;6.25;3.33;;;;;;;3.60;68.75;99285.88;5021889;28;20496;-74
2021/12/04 05:21:20;;;;;;;5.10;3.05;;;;;;;3.48;69.47;99278.91;5019344;28;20041;-74
2021/12/04 05:23:54;;;;;;;6.55;3.38;;;;;;;3.58;69.21;99276.31;5026353;28;20049;-74
2021/12/04 05:26:25;;;;;;;7.88;3.55;;;;;;;3.63;69.21;99272.84;5018945;28;20030;-74
2021/12/04 05:28:52;;;;;;;6.95;2.97;;;;;;;3.68;69.15;99278.06;5022002;28;20120;-74
2021/12/04 05:31:20;;;;;;;6.63;3.50;;;;;;;3.67;69.30;99278.97;5019428;28;20041;-74
2021/12/04 05:33:46;;;;;;;7.80;3.22;;;;;;;3.63;70.00;99272.84;5026425;28;20029;-74
2021/12/04 05:36:12;;;;;;;6.20;3.15;;;;;;;3.61;70.41;99273.72;5023113;28;20509;-74
2021/12/04 05:38:38;;;;;;;7.72;3.20;;;;;;;3.68;70.23;99275.47;5026382;28;20100;-74
2021/12/04 05:41:04;;;;;;;5.85;2.72;;;;;;;3.66;70.26;99274.59;5022320;28;20137;-75
2021/12/04 05:43:30;;;;;;;4.97;2.50;;;;;;;3.55;69.67;99281.53;5025590;28;20109;-74
2021/12/04 05:46:08;;;;;;;7.18;2.70;;;;;;;3.43;70.07;99275.44;5022848;28;20038;-74
2021/12/04 05:48:42;;;;;;;4.22;2.30;;;;;;;3.47;70.35;99271.94;5022735;28;20407;-74
2021/12/04 05:56:15;;;;;;;4.78;2.38;;;;;;;3.07;73.93;99271.81;5028489;28;20037;-74
2021/12/04 05:58:40;;;;;;;4.80;2.28;;;;;;;3.01;74.13;99282.25;5022955;28;20030;-74
2021/12/04 06:01:07;;;;;;;6.60;2.40;;;;;;;3.00;73.93;99283.09;5024200;28;20128;-74
2021/12/04 06:03:33;;;;;;;6.03;3.08;;;;;;;2.92;75.24;99286.53;5024187;28;20557;-74
2021/12/04 06:05:59;;;;;;;5.68;3.20;;;;;;;2.94;74.86;99285.69;5023900;28;20045;-74
2021/12/04 06:08:24;;;;;;;6.85;2.90;;;;;;;2.96;74.89;99293.47;5024542;28;20041;-74
2021/12/04 06:10:51;;;;;;;7.72;3.22;;;;;;;2.92;75.33;99292.59;5023305;28;20048;-74
2021/12/04 06:13:17;;;;;;;6.70;3.33;;;;;;;2.93;75.83;99293.47;5024824;28;20042;-74
2021/12/04 06:15:43;;;;;;;7.78;3.70;;;;;;;2.80;76.52;99292.53;5022449;28;20503;-74
2021/12/04 06:18:08;;;;;;;7.65;3.63;;;;;;;2.79;76.54;99296.00;5025450;28;20040;-74
2021/12/04 06:23:20;;;;;;;9.40;3.80;;;;;;;2.93;76.27;99298.69;5024470;28;20030;-74
2021/12/04 06:25:45;;;;;;;7.05;4.57;;;;;;;2.94;76.32;99306.53;5023381;28;20033;-73
2021/12/04 06:28:11;;;;;;;6.05;3.47;;;;;;;2.95;76.52;99297.81;5023687;28;20522;-74
2021/12/04 06:30:38;;;;;;;8.43;3.50;;;;;;;2.95;76.81;99299.56;5024252;28;20112;-74
2021/12/04 06:33:07;;;;;;;6.97;3.72;;;;;;;3.04;76.50;99299.63;5023368;28;20403;-74
2021/12/04 06:35:36;;;;;;;8.05;3.40;;;;;;;3.05;76.45;99302.22;5023750;28;20033;-74
2021/12/04 06:38:03;;;;;;;6.22;3.30;;;;;;;2.97;76.55;99293.50;5026855;28;20057;-74
2021/12/04 06:40:28;;;;;;;6.53;3.42;;;;;;;2.94;77.25;99290.88;5024092;28;20038;-74
2021/12/04 06:42:59;;;;;;;6.30;4.47;;;;;;;2.96;77.54;99293.47;5022133;28;20044;-74
2021/12/04 06:45:26;;;;;;;7.40;4.22;;;;;;;3.00;76.89;99285.69;5023615;28;20133;-74
2021/12/04 06:47:55;;;;;;;7.28;4.20;;;;;;;3.00;77.31;99288.28;5022580;28;20041;-74
2021/12/04 06:50:31;;;;;;;8.43;5.28;;;;;;;2.94;77.29;99296.09;5023532;28;20562;-74
2021/12/04 06:53:00;;;;;;;7.72;4.97;;;;;;;2.93;77.34;99296.09;5024113;28;20037;-74
2021/12/04 06:55:29;;;;;;;9.02;5.90;;;;;;;2.97;76.88;99293.50;5022087;28;20060;-74
2021/12/04 06:57:55;;;;;;;7.78;5.28;;;;;;;2.93;77.98;99291.72;5024112;28;20120;-74
2021/12/04 07:00:21;;;;;;;9.70;7.00;;;;;;;2.95;77.63;99284.78;5022854;28;20108;-74
2021/12/04 07:02:46;;;;;;;9.10;6.10;;;;;;;3.01;77.60;99290.06;5023514;28;20037;-74
2021/12/04 07:05:11;;;;;;;8.93;6.05;;;;;;;3.06;77.28;99285.72;5022824;28;20124;-74
2021/12/04 07:07:37;;;;;;;9.65;6.40;;;;;;;2.99;77.59;99278.75;5022413;28;20081;-74
2021/12/04 07:10:03;;;;;;;9.65;6.28;;;;;;;2.93;77.61;99268.28;5023593;28;20041;-74
2021/12/04 07:12:29;;;;;;;11.23;7.28;;;;;;;2.92;78.08;99258.72;5022113;28;20033;-75
2021/12/04 07:14:54;;;;;;;11.15;7.78;;;;;;;2.92;78.09;99255.25;5023897;28;20048;-76
2021/12/04 07:17:19;;;;;;;11.85;8.23;;;;;;;2.92;78.09;99250.91;5021196;28;20042;-74
2021/12/04 07:19:45;;;;;;;9.70;6.55;;;;;;;2.90;78.43;99272.63;5024795;28;20037;-75
2021/12/04 07:22:11;;;;;;;11.93;7.38;;;;;;;2.95;77.96;99265.69;5027363;28;20052;-75
2021/12/04 07:24:36;;;;;;;12.77;8.07;;;;;;;3.07;77.62;99271.81;5021343;28;20136;-75
2021/12/04 07:27:02;;;;;;;10.52;7.47;;;;;;;3.03;77.55;99264.84;5023690;28;20558;-75
2021/12/04 07:29:27;;;;;;;12.35;8.93;;;;;;;3.02;77.59;99263.13;5020451;28;20455;-75
2021/12/04 07:31:53;;;;;;;11.25;7.95;;;;;;;3.01;77.76;99271.81;5022897;28;20498;-75
2021/12/04 07:34:18;;;;;;;15.40;8.73;;;;;;;2.95;77.74;99276.97;5022250;28;20087;-75
2021/12/04 07:36:43;;;;;;;11.02;7.50;;;;;;;2.91;77.96;99274.34;5021926;28;20483;-75
2021/12/04 07:39:09;;;;;;;13.50;9.13;;;;;;;2.79;78.54;99269.97;5022812;28;20061;-74
2021/12/04 07:41:38;;;;;;;14.55;8.30;;;;;;;2.65;79.15;99264.69;5021389;28;20042;-73
2021/12/04 07:44:08;;;;;;;13.35;8.57;;;;;;;2.75;79.06;99257.78;5022750;28;20037;-74
2021/12/04 07:46:34;;;;;;;12.25;8.32;;;;;;;2.83;79.15;99263.91;5021226;28;20480;-74
2021/12/04 07:48:59;;;;;;;12.32;8.63;;;;;;;2.90;78.76;99256.97;5022733;28;20045;-74
2021/12/04 07:51:24;;;;;;;12.50;8.68;;;;;;;2.89;78.88;99256.13;5020968;28;20034;-74
2021/12/04 07:53:51;;;;;;;13.05;8.25;;;;;;;2.94;78.81;99256.16;5020876;28;20511;-74
2021/12/04 07:56:16;;;;;;;13.32;8.93;;;;;;;2.96;78.82;99247.47;5022639;28;20048;-74
2021/12/04 07:58:42;;;;;;;13.65;9.13;;;;;;;2.92;79.12;99252.66;5025090;28;20184;-74
2021/12/04 08:01:09;;;;;;;11.23;8.13;;;;;;;2.96;79.38;99247.47;5026022;28;20116;-74
2021/12/04 08:03:34;;;;;;;11.48;7.70;;;;;;;3.01;78.54;99243.13;5025433;28;20040;-74
2021/12/04 08:05:59;;;;;;;11.82;8.25;;;;;;;3.07;78.39;99250.09;5021023;28;20040;-74
2021/12/04 08:08:25;;;;;;;10.35;7.70;;;;;;;3.04;78.68;99245.75;5025586;28;20042;-74
2021/12/04 08:10:50;;;;;;;10.82;7.88;;;;;;;3.06;78.54;99238.78;5026187;28;20043;-74
2021/12/04 08:13:16;;;;;;;11.23;8.18;;;;;;;3.14;78.37;99235.34;5025069;28;20037;-73
2021/12/04 08:15:41;;;;;;;10.63;7.60;;;;;;;3.23;78.46;99225.81;5023803;28;20041;-74
2021/12/04 08:18:08;;;;;;;11.52;7.80;;;;;;;3.23;78.06;99225.81;5020550;28;20040;-74
2021/12/04 08:20:34;;;;;;;12.18;8.38;;;;;;;3.28;78.24;99226.69;5022330;28;20048;-74
2021/12/04 08:22:59;;;;;;;12.30;8.90;;;;;;;3.34;77.75;99224.97;5019858;28;20034;-74
2021/12/04 08:25:25;;;;;;;11.68;8.35;;;;;;;3.36;77.60;99223.25;5022625;28;20041;-73
2021/12/04 08:27:51;;;;;;;12.18;8.50;;;;;;;3.42;77.07;99231.06;5019927;28;20385;-74
2021/12/04 08:30:22;;;;;;;11.48;8.60;;;;;;;3.42;77.18;99221.50;5023244;28;20029;-74
2021/12/04 08:32:49;;;;;;;13.45;9.38;;;;;;;3.23;77.57;99220.59;5020025;28;20034;-74
2021/12/04 08:35:18;;;;;;;10.80;7.53;;;;;;;3.15;78.33;99226.66;5023097;28;20037;-74
2021/12/04 08:37:44;;;;;;;11.30;7.25;;;;;;;3.26;77.52;99235.38;5022781;28;20112;-74
2021/12/04 08:40:15;;;;;;;11.75;8.18;;;;;;;3.34;77.51;99232.78;5031413;28;20492;-74
2021/12/04 08:42:43;;;;;;;10.32;7.13;;;;;;;3.39;77.54;99231.94;5019640;28;20112;-74
2021/12/04 08:45:09;;;;;;;10.90;7.50;;;;;;;3.39;77.33;99231.94;5022742;28;20048;-74
2021/12/04 08:47:36;;;;;;;9.27;7.15;;;;;;;3.36;77.41;99237.16;5023285;28;20033;-74
2021/12/04 08:50:01;;;;;;;9.95;7.30;;;;;;;3.40;77.37;99230.19;5019579;28;20049;-75
2021/12/04 08:52:27;;;;;;;11.55;8.35;;;;;;;3.22;77.69;99233.63;5022812;28;20037;-74
2021/12/04 08:54:52;;;;;;;9.48;6.63;;;;;;;3.25;78.19;99229.31;5019617;28;20113;-75
2021/12/04 08:57:17;;;;;;;9.90;7.18;;;;;;;3.35;77.56;99226.69;5022094;28;20041;-75
2021/12/04 08:59:47;;;;;;;9.57;6.88;;;;;;;3.46;77.34;99231.09;5025107;28;20045;-75
2021/12/04 09:02:14;;;;;;;9.18;6.82;;;;;;;3.43;77.29;99231.09;5026851;28;20034;-76
2021/12/04 09:04:40;;;;;;;11.30;7.03;;;;;;;3.43;77.19;99228.47;5021446;28;20034;-75
2021/12/04 09:07:06;;;;;;;9.35;6.43;;;;;;;3.48;77.21;99242.41;5023860;28;20450;-75
2021/12/04 09:09:33;;;;;;;9.80;6.32;;;;;;;3.59;76.97;99244.13;5024981;28;20042;-74
2021/12/04 09:12:02;;;;;;;8.75;5.82;;;;;;;3.66;76.59;99243.28;5019935;28;20083;-74
2021/12/04 09:14:33;;;;;;;8.27;6.00;;;;;;;3.66;76.42;99245.88;5024350;28;20045;-75
2021/12/04 09:17:02;;;;;;;8.55;6.05;;;;;;;3.64;76.39;99243.28;5027935;28;20060;-74
2021/12/04 09:19:27;;;;;;;10.35;5.63;;;;;;;3.65;76.68;99236.31;5026181;28;20030;-75
2021/12/04 09:21:53;;;;;;;8.48;5.45;;;;;;;3.64;76.62;99238.06;5021208;28;20688;-75
2021/12/04 09:24:25;;;;;;;8.48;5.70;;;;;;;3.69;76.30;99245.88;5020458;28;20105;-75
2021/12/04 09:32:04;;;;;;;8.00;5.88;;;;;;;3.67;76.17;99224.16;5022465;28;20037;-74
2021/12/04 09:59:33;;;;;;;7.72;4.97;;;;;;;3.74;75.21;99205.88;5022802;28;20129;-76
2021/12/04 10:15:56;;;;;;;6.97;4.68;;;;;;;3.93;74.99;99183.28;5028116;28;20435;-75
2021/12/04 10:34:26;;;;;;;6.07;4.30;;;;;;;4.07;73.83;99154.53;5023079;28;20069;-75
2021/12/04 10:36:52;;;;;;;7.10;4.68;;;;;;;4.18;74.01;99151.88;5023372;28;20472;-75
2021/12/04 10:39:18;;;;;;;7.57;5.05;;;;;;;4.16;73.85;99148.41;5023465;28;20467;-75
2021/12/04 10:44:26;;;;;;;7.03;4.18;;;;;;;4.29;73.33;99141.41;5010690;28;20041;-75
2021/12/04 10:46:58;;;;;;;5.80;4.00;;;;;;;4.30;73.40;99141.41;5013633;28;20038;-75
2021/12/04 10:52:19;;;;;;;;;;;;;;;3.86;73.68;99141.50;5013389;28;20398;-76
2021/12/04 10:54:51;;;;;;;6.07;4.28;;;;;;;3.82;74.02;99150.19;5013047;28;19917;-75
2021/12/04 11:02:41;;;;;;;5.90;4.10;;;;;;;3.88;74.37;99132.81;5013276;28;20093;-75
2021/12/04 11:25:27;;;;;;;5.43;3.47;;;;;;;4.66;72.23;99086.38;5008914;28;20038;-76
2021/12/04 11:38:34;;;;;;;5.22;3.63;;;;;;;5.04;71.32;99055.63;5012597;28;20038;-76
2021/12/04 11:46:20;;;;;;;6.68;3.55;;;;;;;5.10;71.09;99046.88;5009448;28;20447;-76
2021/12/04 11:48:46;;;;;;;5.90;3.63;;;;;;;5.14;70.76;99034.66;5012389;28;20044;-76
2021/12/04 11:51:15;;;;;;;4.60;3.10;;;;;;;5.06;71.90;99037.34;5012306;28;20029;-76
2021/12/04 11:53:42;;;;;;;6.22;2.90;;;;;;;5.17;72.08;99030.25;5012253;28;20042;-76
2021/12/04 11:56:17;;;;;;;5.93;2.88;;;;;;;5.28;71.55;99036.25;5012153;28;20064;-76
2021/12/04 11:58:45;;;;;;;5.10;3.20;;;;;;;5.35;70.83;99046.69;5012355;28;20443;-76
2021/12/04 12:01:31;;;;;;;4.25;2.60;;;;;;;5.37;70.12;99037.06;4994605;28;20091;-76
2021/12/04 12:04:00;;;;;;;5.88;2.95;;;;;;;5.29;70.52;99031.88;5008703;28;20723;-76
2021/12/04 12:06:37;;;;;;;4.00;2.75;;;;;;;5.37;70.79;99029.22;5011792;28;20385;-76
2021/12/04 12:09:15;;;;;;;5.15;2.97;;;;;;;5.38;69.84;99036.19;5002899;28;20038;-76
2021/12/04 12:11:49;;;;;;;4.43;2.63;;;;;;;5.20;70.17;99032.00;5011972;28;20041;-75
2021/12/04 12:14:19;;;;;;;4.88;3.20;;;;;;;5.18;69.88;99029.38;5006894;28;20484;-76
2021/12/04 12:16:51;;;;;;;4.72;3.03;;;;;;;5.15;70.26;99024.16;5008239;28;20048;-76
2021/12/04 12:19:29;;;;;;;4.00;2.60;;;;;;;5.23;70.33;99019.75;5008298;28;20030;-76
2021/12/04 12:22:21;;;;;;;4.47;2.90;;;;;;;5.16;70.46;99022.41;5011884;28;20042;-76
2021/12/04 12:24:54;;;;;;;4.97;3.03;;;;;;;5.22;70.42;99025.88;5009029;28;20056;-76
2021/12/04 12:33:36;;;;;;;6.05;3.33;;;;;;;5.24;69.13;99018.03;5009999;28;20037;-76
2021/12/04 12:36:12;;;;;;;5.40;2.72;;;;;;;5.26;69.36;99003.16;4993878;28;20116;-76
2021/12/04 12:38:47;;;;;;;4.45;2.78;;;;;;;5.37;69.94;99003.03;5011516;28;20037;-76
2021/12/04 12:41:31;;;;;;;4.68;2.95;;;;;;;5.54;69.49;98993.28;5010904;28;20066;-76
2021/12/04 12:44:12;;;;;;;4.90;3.10;;;;;;;5.30;68.70;98996.16;5008415;28;20038;-76
2021/12/04 12:47:16;;;;;;;6.07;3.58;;;;;;;5.35;69.44;98994.38;4993755;28;20408;-76
2021/12/04 12:49:45;;;;;;;4.68;3.13;;;;;;;5.47;69.08;98994.22;5010876;28;20113;-75
2021/12/04 12:52:13;;;;;;;5.50;3.03;;;;;;;5.33;68.68;98997.00;4993945;28;20054;-76
2021/12/04 12:54:56;;;;;;;4.53;2.95;;;;;;;5.24;68.94;98992.72;5011169;28;20076;-76
2021/12/04 12:57:43;;;;;;;5.45;3.33;;;;;;;5.27;68.63;98986.59;5007737;28;20558;-76
2021/12/04 13:14:18;;;;;;;6.07;3.70;;;;;;;5.48;69.04;98980.28;5007842;28;20492;-76
2021/12/04 13:16:48;;;;;;;7.40;4.18;;;;;;;5.53;69.03;98978.47;5011175;28;20120;-76
2021/12/04 13:19:18;;;;;;;5.88;3.72;;;;;;;5.63;68.86;98969.66;5011226;28;20109;-76
2021/12/04 13:21:46;;;;;;;7.20;4.15;;;;;;;5.57;68.68;98969.69;5011003;28;20057;-76
2021/12/04 13:24:13;;;;;;;5.35;3.72;;;;;;;5.47;69.03;98971.53;5011137;28;20040;-76
2021/12/04 13:26:43;;;;;;;7.63;4.20;;;;;;;5.44;69.15;98965.47;5010787;28;20688;-76
2021/12/04 13:29:10;;;;;;;5.90;3.83;;;;;;;5.34;69.57;98971.69;5011110;28;20034;-76
2021/12/04 13:31:38;;;;;;;5.72;3.75;;;;;;;5.20;69.54;98980.53;5011080;28;20099;-76
2021/12/04 13:34:06;;;;;;;5.15;3.53;;;;;;;5.16;69.77;98983.19;5011008;28;20038;-76
2021/12/04 13:36:32;;;;;;;4.78;3.25;;;;;;;5.10;69.79;98984.13;5010760;28;20558;-76
2021/12/04 13:39:00;;;;;;;5.20;3.17;;;;;;;5.04;69.82;98976.34;5011131;28;20038;-76
2021/12/04 13:41:28;;;;;;;5.85;3.50;;;;;;;5.04;70.21;98976.34;5010997;28;20038;-76
2021/12/04 13:43:56;;;;;;;5.85;3.38;;;;;;;5.09;70.29;98973.69;5010826;28;20034;-76
2021/12/04 13:46:23;;;;;;;5.55;2.85;;;;;;;5.14;70.24;98964.06;5001522;28;20034;-76
2021/12/04 13:48:48;;;;;;;5.18;3.35;;;;;;;5.12;70.63;98963.19;5011014;28;20631;-76
2021/12/04 13:51:14;;;;;;;5.05;3.40;;;;;;;5.16;70.18;98957.94;5011025;28;20033;-76
2021/12/04 13:53:42;;;;;;;5.35;3.17;;;;;;;5.18;70.01;98956.13;5012848;28;20551;-76
2021/12/04 13:56:11;;;;;;;4.80;3.35;;;;;;;5.13;70.02;98941.38;5013036;28;20029;-76
2021/12/04 13:58:50;;;;;;;4.47;2.83;;;;;;;5.07;69.94;98933.59;5014794;28;20077;-76
2021/12/04 14:01:16;;;;;;;5.65;3.42;;;;;;;5.01;70.33;98932.78;5014575;28;20040;-76
2021/12/04 14:03:42;;;;;;;6.53;4.00;;;;;;;4.97;70.19;98935.44;5014303;28;20038;-76
2021/12/04 14:06:16;;;;;;;5.35;3.70;;;;;;;4.90;70.62;98938.97;5014033;28;20048;-76
2021/12/04 14:08:43;;;;;;;6.78;4.22;;;;;;;4.88;70.83;98941.63;5014280;28;20034;-76
2021/12/04 14:11:08;;;;;;;6.40;3.95;;;;;;;4.89;71.35;98947.69;4996784;28;20112;-76
2021/12/04 14:13:38;;;;;;;6.75;4.45;;;;;;;4.88;71.44;98940.75;5014209;28;20164;-76
2021/12/04 14:16:05;;;;;;;6.38;4.40;;;;;;;4.79;70.84;98933.84;5013940;28;20129;-76
2021/12/04 14:18:31;;;;;;;6.15;4.68;;;;;;;4.73;71.18;98924.31;5012850;28;20559;-76
2021/12/04 14:21:00;;;;;;;7.70;5.03;;;;;;;4.65;71.33;98920.88;5014085;28;20480;-76
2021/12/04 14:23:28;;;;;;;8.50;4.78;;;;;;;4.48;71.52;98917.53;5013968;28;20034;-76
2021/12/04 14:25:54;;;;;;;7.97;5.68;;;;;;;4.44;71.68;98931.50;5012099;28;20088;-76
2021/12/04 14:28:22;;;;;;;8.13;5.05;;;;;;;4.36;71.75;98921.09;5013891;28;20050;-76
2021/12/04 14:30:49;;;;;;;6.40;4.40;;;;;;;4.36;72.34;98926.34;5013910;28;20064;-76
2021/12/04 14:33:22;;;;;;;7.82;5.10;;;;;;;4.34;72.12;98926.34;5013766;28;20041;-76
2021/12/04 14:35:50;;;;;;;7.82;5.78;;;;;;;4.28;72.41;98926.38;5013582;28;20065;-76
2021/12/04 14:38:18;;;;;;;7.43;5.13;;;;;;;4.28;72.71;98929.00;5013903;28;20061;-76
2021/12/04 14:40:51;;;;;;;6.85;4.97;;;;;;;4.35;72.29;98919.38;5013777;28;20664;-76
2021/12/04 14:43:23;;;;;;;7.75;4.72;;;;;;;4.31;72.36;98913.28;5008722;28;20060;-76
2021/12/04 14:45:51;;;;;;;7.50;5.00;;;;;;;4.18;72.38;98909.03;5010275;28;20060;-76
2021/12/04 14:48:33;;;;;;;8.23;4.90;;;;;;;4.11;72.65;98916.06;5012250;28;20492;-75
2021/12/04 14:51:06;;;;;;;7.28;5.03;;;;;;;4.13;73.10;98908.19;5013517;28;20042;-76